新千歳空港の過去48時間の天気

新千歳空港 (Sapporo/New Chitose)

現在時刻: 9/24 13:45 JST (9/24 04:45 UTC) 以下の時間は現地時間です。

過去48時間のMETAR気象情報
時間 風向 風速(m/s) 視程 気温(℃) 湿度(%) 気圧(hPa) 天気現象
24 13:00 南南東 6 10km以上 21 83 1012 弱いしゅう雨
24 12:30 南南東 6 10km以上 21 83 1013 弱いしゅう雨
24 12:00 南南東 6 10km以上 20 88 1014 弱いしゅう雨
24 11:30 南南東 7 10km以上 21 83 1014
24 11:00 南南東 6 10km以上 21 83 1014 弱いしゅう雨
24 10:30 南南東 7 10km以上 20 88 1014 弱いしゅう雨
24 10:00 南南東 4 10km以上 20 88 1014 弱いしゅう雨
24 09:30 南南東 5 10km以上 19 88 1015 弱いしゅう雨
24 09:00 南南東 3 10km以上 19 88 1015 弱いしゅう雨
24 08:30 2 10km以上 18 88 1015
24 08:00 3 10km以上 17 94 1015
24 07:30 不定 1 10km以上 16 94 1015
24 07:00 南南東 3 10km以上 15 94 1015
24 06:30 不定 1 10km以上 14 94 1016
24 06:00 不定 1 10km以上 13 100 1015
24 05:30 南南東 2 10km以上 12 100 1016
24 05:00 1 10km以上 13 94 1015
24 04:30 南東 2 10km以上 12 94 1015
24 04:00 東南東 1 10km以上 13 94 1015
24 03:30 2 10km以上 12 100 1015
24 03:00 不定 1 10km以上 13 94 1015
24 02:30 南南東 2 10km以上 12 94 1015
24 02:00 2 10km以上 12 100 1015
24 01:30 2 10km以上 13 94 1015
24 01:00 東南東 2 10km以上 12 100 1015
24 00:30 不定 1 10km以上 13 94 1016
24 00:00 不定 1 10km以上 13 94 1016
23 23:30 西南西 2 10km以上 14 94 1016
23 23:00 不定 1 10km以上 13 94 1016
23 22:30 不定 1 10km以上 14 94 1016
23 22:00 西北西 2 10km以上 14 94 1016
23 21:30 北北西 2 10km以上 15 88 1016
23 21:00 北北西 2 10km以上 15 88 1016
23 20:30 北北東 2 10km以上 15 88 1016
23 20:00 北北西 3 10km以上 17 77 1016
23 19:30 2 10km以上 16 82 1016
23 19:00 3 10km以上 17 77 1016
23 18:30 4 10km以上 17 77 1016
23 18:00 北北西 4 10km以上 18 73 1015
23 17:30 4 10km以上 18 73 1015
23 17:00 5 10km以上 19 68 1014
23 16:30 5 10km以上 20 64 1014
23 16:00 5 10km以上 21 60 1014
23 15:30 6 10km以上 22 57 1014
23 15:00 6 10km以上 22 60 1014
23 14:30 6 10km以上 22 60 1014
23 14:00 6 10km以上 22 65 1013
23 13:30 6 10km以上 23 61 1014
23 13:00 6 10km以上 24 57 1013
23 12:30 5 10km以上 23 61 1013
23 12:00 5 10km以上 22 65 1013
23 11:30 北北東 5 10km以上 23 61 1014
23 11:00 5 10km以上 23 65 1013
23 10:30 6 10km以上 21 73 1014
23 10:19 北北西 7 10km以上 23 65 1013
23 10:00 南南西 3 10km以上 23 65 1013
23 09:30 南西 3 10km以上 23 61 1013
23 09:00 南南東 3 10km以上 22 69 1013
23 08:30 南南東 3 10km以上 21 78 1012
23 08:00 南南東 3 10km以上 20 83 1012
23 07:30 南南東 3 10km以上 19 94 1012 もや
23 07:00 南南東 4 10km以上 19 94 1012
23 06:30 南南東 5 10km以上 18 94 1012
23 06:00 南東 7 10km以上 18 88 1011 弱いしゅう雨
23 05:30 5 10km以上 17 94 1011 弱いしゅう雨
23 05:00 南南東 3 10km以上 16 94 1011 弱いしゅう雨
23 03:30 3 5000m 15 94 1011 弱いしゅう雨 もや
RJCC 240400Z 15011KT 9999 -SHRA FEW008 BKN010 BKN030 21/18 Q1012
RJCC 240330Z 16012KT 9999 -SHRA FEW008 SCT010 BKN040 21/18 Q1013 RMK 1ST008 3ST010 6CU040 A2993
RJCC 240300Z 16012KT 9999 -SHRA FEW010 SCT015 BKN040 20/18 Q1014 RMK 1ST010 4ST015 6CU040 A2995
RJCC 240230Z 15013KT 9999 FEW010 SCT015 BKN040 21/18 Q1014 RMK 1ST010 4ST015 5CU040 A2995
RJCC 240200Z 16012KT 9999 -SHRA FEW010 SCT015 BKN040 21/18 Q1014 RMK 1ST010 3ST015 5CU040 A2995
RJCC 240130Z 15013KT 9999 -SHRA FEW015 SCT020 BKN090 20/18 Q1014 RMK 2ST015 3CU020 6AC090 A2995
RJCC 240100Z 16008KT 9999 -SHRA FEW008 SCT015 BKN060 20/18 Q1014 RMK 1ST008 3ST015 6CU060 A2996
RJCC 240030Z 15010KT 9999 -SHRA FEW008 SCT015 BKN030 19/17 Q1015 RMK 1ST008 4ST015 5CU030 A2997
RJCC 240000Z 16006KT 9999 -SHRA FEW010 BKN020 BKN/// 19/17 Q1015 RMK 1ST010 5CU020 A2997
RJCC 232330Z 19003KT 9999 FEW007 BKN025 BKN/// 18/16 Q1015
RJCC 232300Z 18005KT 9999 FEW007 BKN030 BKN/// 17/16 Q1015
RJCC 232230Z VRB01KT 9999 FEW007 SCT030 BKN/// 16/15 Q1015
RJCC 232200Z 16005KT 9999 FEW007 BKN/// 15/14 Q1015 RMK 1ST007 A2999
RJCC 232130Z VRB01KT 9999 FEW007 BKN/// 14/13 Q1016
RJCC 232100Z VRB01KT 9999 FEW007 SCT030 BKN/// 13/13 Q1015
RJCC 232030Z 16003KT 9999 FEW007 BKN/// 12/12 Q1016
RJCC 232000Z 19002KT 9999 FEW004 SCT007 BKN/// 13/12 Q1015
RJCC 231930Z 14004KT 9999 FEW004 BKN007 BKN/// 12/11 Q1015 RMK 1ST004 5ST007 A2999
RJCC 231900Z 12002KT 9999 FEW006 SCT007 BKN/// 13/12 Q1015 RMK 1ST006 3ST007 A2999
RJCC 231830Z 10003KT 9999 FEW006 SCT007 BKN120 12/12 Q1015 RMK 1ST006 3ST007 6AC120 A2999
RJCC 231800Z VRB01KT 9999 FEW006 SCT007 BKN120 13/12 Q1015 RMK 1ST006 3ST007 6AC120 A3000
RJCC 231730Z 16003KT 9999 FEW006 BKN120 BKN/// 12/11 Q1015 RMK 1ST006 5AC120 A2999
RJCC 231700Z 18003KT 9999 FEW015 SCT120 BKN/// 12/12 Q1015 RMK 1ST015 3AC120 A3000
RJCC 231630Z 18003KT 140V220 9999 FEW015 BKN/// 13/12 Q1015
RJCC 231600Z 11003KT 9999 FEW020 BKN/// 12/12 Q1015
RJCC 231530Z VRB02KT 9999 FEW020 BKN/// 13/12 Q1016 RMK 1CU020 A3001
RJCC 231500Z VRB01KT 9999 FEW020 BKN/// 13/12 Q1016 RMK 1CU020 A3001
RJCC 231430Z 24003KT 9999 FEW020 BKN/// 14/13 Q1016
RJCC 231400Z VRB01KT 9999 FEW020 BKN/// 13/12 Q1016 RMK 1CU020 A3000
RJCC 231330Z VRB01KT 9999 FEW020 BKN/// 14/13 Q1016
RJCC 231300Z 30003KT 9999 FEW020 BKN/// 14/13 Q1016 RMK 1CU020 A3002
RJCC 231230Z 33003KT 310V020 9999 FEW020 BKN/// 15/13 Q1016
RJCC 231200Z 34003KT 9999 FEW020 BKN/// 15/13 Q1016
RJCC 231130Z 02003KT 330V060 9999 FEW020 BKN/// 15/13 Q1016
RJCC 231100Z 34005KT 9999 FEW020 SCT035 BKN/// 17/13 Q1016
RJCC 231030Z 01003KT 9999 FEW020 SCT/// 16/13 Q1016
RJCC 231000Z 35006KT 9999 FEW020 17/13 Q1016 RMK 1CU020 A3000
RJCC 230930Z 35007KT 9999 FEW020 17/13 Q1016 RMK 1CU020 A3000
RJCC 230900Z 34008KT 9999 FEW020 18/13 Q1015 RMK 1CU020 A2999
RJCC 230830Z 35007KT 9999 FEW020 18/13 Q1015 RMK 1CU020 A2998
RJCC 230800Z 35010KT 9999 FEW020 19/13 Q1014 RMK 1CU020 A2997
RJCC 230730Z 36010KT 9999 FEW020 20/13 Q1014 RMK 1CU020 A2997
RJCC 230700Z 36010KT 9999 FEW020 21/13 Q1014 RMK 1CU020 A2996
RJCC 230630Z 36011KT 9999 FEW020 SCT/// 22/13 Q1014
RJCC 230600Z 36011KT 9999 FEW020 22/14 Q1014 RMK 1CU020 A2995
RJCC 230530Z 36012KT 9999 FEW020 22/14 Q1014 RMK 1CU020 A2995
RJCC 230500Z 01011KT 9999 FEW020 22/15 Q1013
RJCC 230430Z 36011KT 9999 FEW020 BKN030 23/15 Q1014 RMK 1CU020 5CU030 A2994
RJCC 230400Z 36011KT 9999 FEW020 SCT030 24/15 Q1013 RMK 1CU020 3CU030 A2994
RJCC 230330Z 36009KT 9999 FEW020 SCT030 23/15 Q1013
RJCC 230300Z 01009KT 320V040 9999 FEW020 SCT030 22/15 Q1013
RJCC 230230Z 02009KT 9999 FEW020 23/15 Q1014 RMK 1CU020 A2994
RJCC 230200Z 35009KT 9999 FEW020 23/16 Q1013 RMK 1CU020 A2994
RJCC 230130Z 36011KT 9999 FEW020 SCT030 BKN040 21/16 Q1014 RMK 1CU020 4CU030 5CU040 A2994
RJCC 230119Z 34013KT 9999 FEW025 BKN050 23/16 Q1013 RMK 1CU025 6CU050 A2994
RJCC 230100Z 20005KT 160V220 9999 FEW025 BKN050 23/16 Q1013 RMK 1CU025 5CU050 A2993
RJCC 230030Z 22005KT 170V260 9999 FEW020 SCT050 23/15 Q1013 RMK 1CU020 4CU050 A2992
RJCC 230000Z 15005KT 9999 FEW010 SCT050 22/16 Q1013 RMK 1ST010 3CU050 A2992
RJCC 222330Z 16006KT 9999 FEW008 21/17 Q1012 RMK 1ST008 A2991
RJCC 222300Z 16006KT 9999 FEW005 20/17 Q1012 RMK 1ST005 A2991
RJCC 222230Z 15006KT 9999 BR FEW004 19/18 Q1012 RMK 2ST004 A2991 5000W
RJCC 222200Z 15007KT 9999 FEW004 SCT050 19/18 Q1012 RMK 2ST004 4CU050 A2990
RJCC 222130Z 15009KT 9999 FEW004 SCT008 BKN030 18/17 Q1012 RMK 1ST004 4ST008 6CU030 A2990
RJCC 222100Z 13014KT 9999 -SHRA FEW004 SCT013 18/16 Q1011 RMK 1ST004 4ST013 A2988
RJCC 222030Z 18010KT 9999 -SHRA FEW004 BKN013 BKN020 17/16 Q1011 RMK 1ST004 5ST013 6CU020 A2987
RJCC 222000Z 16006KT 9999 -SHRA FEW008 BKN013 BKN020 16/15 Q1011 RMK 1ST008 6ST013 7CU020 A2987
RJCC 221830Z 36005KT 5000 -SHRA BR FEW004 BKN013 BKN020 15/14 Q1011 RMK 1ST004 5ST013 7CU020 A2987